Time;durP1;ratioP1;P1;durP2;ratioP2;P2;SDS_P1;SDS_P2;PMS_P1;PMS_P2;Temp;Humidity;BMP_temperature;BMP_pressure;BME280_temperature;BME280_humidity;BME280_pressure;Samples;Min_cycle;Max_cycle;Signal;HPM_P1;HPM_P2
2021/03/01 00:02:22;;;;;;;26.85;18.67;;;10.30;93.60;;;;;;5104475;28;20426;-80
2021/03/01 00:04:49;;;;;;;26.37;19.20;;;10.30;93.60;;;;;;5104955;28;20449;-78
2021/03/01 00:07:16;;;;;;;27.33;19.37;;;10.30;93.60;;;;;;5105771;28;20787;-78
2021/03/01 00:09:43;;;;;;;28.35;19.10;;;10.30;93.60;;;;;;5105312;28;20497;-78
2021/03/01 00:12:11;;;;;;;25.73;18.35;;;10.30;93.70;;;;;;5105538;28;20500;-78
2021/03/01 00:14:37;;;;;;;22.00;15.85;;;10.30;93.60;;;;;;5105686;28;20830;-79
2021/03/01 00:17:03;;;;;;;19.95;15.80;;;10.30;93.50;;;;;;5101632;28;20844;-80
2021/03/01 00:19:30;;;;;;;23.15;16.10;;;10.20;93.20;;;;;;5106216;28;20437;-79
2021/03/01 00:21:57;;;;;;;21.40;15.70;;;10.20;93.20;;;;;;5102137;28;20428;-79
2021/03/01 00:24:23;;;;;;;26.42;16.15;;;10.20;93.30;;;;;;5104794;28;20442;-79
2021/03/01 00:26:50;;;;;;;23.05;17.27;;;10.20;93.40;;;;;;5102619;28;20412;-78
2021/03/01 00:29:16;;;;;;;27.80;19.27;;;10.20;93.40;;;;;;5105892;28;20432;-78
2021/03/01 00:31:42;;;;;;;32.17;18.70;;;10.20;93.30;;;;;;5105718;28;20424;-78
2021/03/01 00:34:08;;;;;;;29.87;18.37;;;10.10;93.30;;;;;;5105419;28;20427;-79
2021/03/01 00:36:35;;;;;;;27.03;18.07;;;10.00;93.50;;;;;;5103404;28;20885;-79
2021/03/01 00:39:03;;;;;;;26.20;17.70;;;10.00;93.60;;;;;;5105790;28;20439;-78
2021/03/01 00:41:29;;;;;;;27.27;18.40;;;10.10;93.70;;;;;;5103802;28;20420;-79
2021/03/01 00:43:55;;;;;;;32.60;21.37;;;10.10;93.60;;;;;;5105324;28;20419;-77
2021/03/01 00:46:22;;;;;;;37.30;19.97;;;10.00;93.40;;;;;;5103182;28;20420;-78
2021/03/01 00:48:48;;;;;;;46.97;20.00;;;9.90;93.00;;;;;;5105757;28;20419;-78
2021/03/01 00:51:14;;;;;;;33.15;19.85;;;9.80;93.40;;;;;;5103804;28;20416;-78
2021/03/01 00:53:41;;;;;;;31.00;18.67;;;9.70;93.50;;;;;;5104207;28;20477;-78
2021/03/01 00:56:08;;;;;;;24.40;17.90;;;9.70;93.50;;;;;;5102936;28;21020;-78
2021/03/01 00:58:36;;;;;;;25.48;17.73;;;9.70;93.50;;;;;;5100795;28;20475;-78
2021/03/01 01:01:03;;;;;;;28.85;18.20;;;9.70;93.50;;;;;;5104290;28;20414;-78
2021/03/01 01:03:29;;;;;;;30.50;18.10;;;9.70;93.60;;;;;;5101155;28;20427;-78
2021/03/01 01:06:01;;;;;;;26.42;18.00;;;9.70;93.60;;;;;;5102913;28;20391;-77
2021/03/01 01:08:34;;;;;;;27.90;18.50;;;9.70;93.70;;;;;;5105212;28;20430;-79
2021/03/01 01:11:01;;;;;;;33.05;19.48;;;9.70;93.70;;;;;;5102168;28;20476;-78
2021/03/01 01:13:28;;;;;;;28.85;19.00;;;9.70;93.70;;;;;;5101992;28;20446;-79
2021/03/01 01:15:54;;;;;;;27.90;19.33;;;9.70;93.80;;;;;;5101295;28;20429;-78
2021/03/01 01:18:21;;;;;;;30.50;20.08;;;9.70;93.90;;;;;;5101954;28;20418;-78
2021/03/01 01:20:48;;;;;;;36.38;21.02;;;9.70;94.00;;;;;;5103515;28;20922;-78
2021/03/01 01:23:14;;;;;;;36.45;22.88;;;9.70;94.00;;;;;;5104490;28;20415;-78
2021/03/01 01:25:41;;;;;;;47.13;24.88;;;9.70;94.10;;;;;;5106218;28;20779;-78
2021/03/01 01:28:07;;;;;;;37.22;24.83;;;9.70;94.10;;;;;;5102560;28;20425;-77
2021/03/01 01:30:34;;;;;;;39.90;25.13;;;9.70;94.20;;;;;;5104733;28;20427;-78
2021/03/01 01:33:01;;;;;;;33.92;22.48;;;9.70;94.30;;;;;;5101160;28;21295;-78
2021/03/01 01:35:27;;;;;;;31.25;21.55;;;9.70;94.40;;;;;;5105184;28;20424;-78
2021/03/01 01:37:54;;;;;;;30.60;21.08;;;9.70;94.40;;;;;;5101668;27;20429;-77
2021/03/01 01:40:22;;;;;;;29.97;20.20;;;9.70;94.50;;;;;;5108779;28;20420;-78
2021/03/01 01:42:49;;;;;;;37.45;18.95;;;9.70;94.60;;;;;;5107210;28;20423;-77
2021/03/01 01:45:19;;;;;;;34.58;21.48;;;9.80;94.60;;;;;;5104829;28;20468;-78
2021/03/01 01:47:48;;;;;;;34.93;23.73;;;9.80;94.50;;;;;;5104046;27;20416;-79
2021/03/01 01:50:15;;;;;;;44.33;24.00;;;9.70;94.50;;;;;;5105787;28;20431;-79
2021/03/01 01:52:42;;;;;;;44.10;27.17;;;9.80;94.50;;;;;;5103977;27;20424;-79
2021/03/01 01:55:10;;;;;;;48.08;27.88;;;9.70;94.50;;;;;;5106464;28;20780;-78
2021/03/01 01:57:37;;;;;;;48.60;29.30;;;9.60;94.70;;;;;;5104467;28;20780;-79
2021/03/01 02:00:07;;;;;;;48.53;28.90;;;9.50;94.80;;;;;;5106986;28;20778;-78
2021/03/01 02:02:34;;;;;;;45.63;28.60;;;9.50;94.80;;;;;;5106373;28;20428;-79
2021/03/01 02:05:12;;;;;;;45.78;28.67;;;9.50;94.80;;;;;;5103954;28;21062;-79
2021/03/01 02:08:04;;;;;;;45.55;27.85;;;9.50;94.90;;;;;;5103722;27;20415;-78
2021/03/01 02:10:43;;;;;;;44.42;27.45;;;9.50;94.90;;;;;;5117985;27;20438;-78
2021/03/01 02:13:22;;;;;;;44.53;28.20;;;9.50;94.90;;;;;;5101779;27;20416;-78
2021/03/01 02:15:53;;;;;;;43.00;27.65;;;9.60;95.00;;;;;;5102325;28;20436;-78
2021/03/01 02:18:21;;;;;;;43.38;28.65;;;9.60;94.70;;;;;;5117516;27;22477;-78
2021/03/01 02:20:53;;;;;;;46.92;29.83;;;9.60;94.70;;;;;;5105674;27;20432;-78
2021/03/01 02:23:27;;;;;;;40.55;26.52;;;9.60;94.70;;;;;;5121273;27;20450;-78
2021/03/01 02:25:59;;;;;;;27.83;19.20;;;9.60;94.70;;;;;;5102456;28;20420;-78
2021/03/01 02:28:28;;;;;;;26.17;17.30;;;9.60;94.60;;;;;;5102798;27;20416;-78
2021/03/01 02:30:58;;;;;;;26.58;16.75;;;9.70;94.50;;;;;;5105619;28;20530;-78
2021/03/01 02:33:30;;;;;;;27.67;17.52;;;9.70;94.50;;;;;;5101475;27;20429;-78
2021/03/01 02:36:00;;;;;;;24.35;16.65;;;9.60;94.40;;;;;;5108132;27;20428;-77
2021/03/01 02:38:30;;;;;;;26.95;17.27;;;9.70;94.50;;;;;;5100292;28;22925;-78
2021/03/01 02:40:58;;;;;;;25.65;18.25;;;9.60;94.30;;;;;;5104946;27;20420;-76
2021/03/01 02:43:34;;;;;;;25.88;17.75;;;9.60;94.20;;;;;;5104557;27;20412;-78
2021/03/01 02:46:07;;;;;;;25.95;18.38;;;9.60;94.20;;;;;;5105121;27;20411;-78
2021/03/01 02:48:40;;;;;;;25.33;17.98;;;9.60;94.30;;;;;;5103387;27;20417;-78
2021/03/01 02:51:12;;;;;;;24.45;17.13;;;9.60;94.30;;;;;;5119661;27;20487;-77
2021/03/01 02:53:41;;;;;;;24.17;16.75;;;9.60;94.20;;;;;;5102095;28;20424;-77
2021/03/01 02:56:09;;;;;;;22.58;16.33;;;9.60;94.50;;;;;;5104238;28;20930;-78
2021/03/01 02:58:42;;;;;;;24.83;16.15;;;9.60;94.10;;;;;;5104860;28;20462;-77
2021/03/01 03:01:12;;;;;;;24.00;16.75;;;9.60;94.10;;;;;;5104126;27;20860;-78
2021/03/01 03:03:41;;;;;;;27.10;18.60;;;9.60;94.10;;;;;;5104725;28;20428;-78
2021/03/01 03:06:11;;;;;;;29.87;21.07;;;9.60;94.10;;;;;;5102606;27;20483;-78
2021/03/01 03:08:46;;;;;;;32.78;23.35;;;9.70;94.20;;;;;;5100100;28;20464;-78
2021/03/01 03:11:18;;;;;;;33.85;22.95;;;9.70;94.10;;;;;;5102298;27;20481;-78
2021/03/01 03:13:58;;;;;;;32.15;22.55;;;9.70;94.00;;;;;;5104555;28;20915;-77
2021/03/01 03:16:32;;;;;;;32.67;22.65;;;9.60;93.70;;;;;;5103901;27;20422;-79
2021/03/01 03:19:03;;;;;;;33.67;23.40;;;9.60;93.70;;;;;;5107264;28;20460;-78
2021/03/01 03:21:30;;;;;;;34.58;23.83;;;9.50;93.90;;;;;;5105789;27;20446;-78
2021/03/01 03:24:03;;;;;;;35.45;23.80;;;9.40;94.00;;;;;;5098484;28;20464;-80
2021/03/01 03:26:29;;;;;;;34.00;23.50;;;9.40;94.10;;;;;;5119730;27;20423;-80
2021/03/01 03:28:59;;;;;;;34.63;24.67;;;9.40;94.10;;;;;;5105617;28;20900;-78
2021/03/01 03:31:25;;;;;;;32.78;23.27;;;9.30;94.10;;;;;;5105443;27;20416;-78
2021/03/01 03:33:52;;;;;;;34.05;23.30;;;9.30;94.20;;;;;;5105296;28;20432;-78
2021/03/01 03:36:23;;;;;;;31.55;21.58;;;9.30;94.10;;;;;;5103927;28;20420;-78
2021/03/01 03:38:59;;;;;;;31.92;21.80;;;9.30;94.20;;;;;;5101920;28;20423;-77
2021/03/01 03:41:31;;;;;;;35.40;24.25;;;9.30;94.30;;;;;;5106032;27;20815;-78
2021/03/01 03:44:01;;;;;;;34.00;24.95;;;9.30;94.20;;;;;;5099183;27;20451;-78
2021/03/01 03:46:30;;;;;;;33.33;23.05;;;9.20;94.30;;;;;;5103962;27;20469;-78
2021/03/01 03:48:59;;;;;;;29.67;21.00;;;9.20;94.40;;;;;;5100966;27;20431;-77
2021/03/01 03:51:27;;;;;;;28.02;19.30;;;9.20;94.40;;;;;;5096691;27;20906;-78
2021/03/01 03:53:57;;;;;;;30.95;19.33;;;9.20;94.50;;;;;;5105942;28;20432;-77
2021/03/01 03:56:29;;;;;;;28.75;19.15;;;9.20;94.60;;;;;;5105748;28;20419;-78
2021/03/01 03:59:01;;;;;;;28.17;18.83;;;9.30;94.70;;;;;;5103271;28;20511;-78
2021/03/01 04:01:30;;;;;;;28.35;18.52;;;9.30;94.70;;;;;;5101962;28;20424;-78
2021/03/01 04:04:00;;;;;;;30.52;19.33;;;9.20;94.70;;;;;;5118217;27;20420;-78
2021/03/01 04:06:26;;;;;;;32.67;20.03;;;9.20;94.80;;;;;;5099478;28;20446;-77
2021/03/01 04:08:55;;;;;;;30.73;19.85;;;9.20;95.00;;;;;;5101818;28;20763;-78
2021/03/01 04:11:24;;;;;;;32.85;20.70;;;9.20;95.00;;;;;;5104270;28;20420;-77
2021/03/01 04:13:53;;;;;;;32.63;20.73;;;9.20;95.00;;;;;;5095586;28;20445;-77
2021/03/01 04:16:21;;;;;;;33.50;20.77;;;9.20;95.00;;;;;;5100437;28;20428;-76
2021/03/01 04:18:51;;;;;;;31.98;20.17;;;9.20;95.00;;;;;;5099446;28;20421;-77
2021/03/01 04:21:20;;;;;;;34.80;21.45;;;9.20;95.00;;;;;;5099370;28;20446;-77
2021/03/01 04:23:49;;;;;;;37.20;22.73;;;9.20;94.90;;;;;;5100238;28;20428;-78
2021/03/01 04:26:16;;;;;;;38.25;22.85;;;9.20;94.90;;;;;;5101577;28;20440;-77
2021/03/01 04:28:43;;;;;;;39.83;24.38;;;9.20;94.90;;;;;;5100079;28;20465;-77
2021/03/01 04:31:12;;;;;;;42.17;24.15;;;9.20;94.90;;;;;;5104025;28;20428;-78
2021/03/01 04:33:39;;;;;;;43.80;25.55;;;9.20;94.90;;;;;;5102205;28;20478;-77
2021/03/01 04:36:06;;;;;;;42.40;25.30;;;9.20;95.00;;;;;;5098516;28;20432;-77
2021/03/01 04:38:33;;;;;;;44.10;26.45;;;9.20;95.10;;;;;;5100745;28;20432;-77
2021/03/01 04:41:00;;;;;;;42.13;25.43;;;9.10;95.00;;;;;;5098959;28;20426;-77
2021/03/01 04:43:28;;;;;;;44.78;25.77;;;9.10;95.20;;;;;;5106101;28;20428;-77
2021/03/01 04:45:56;;;;;;;40.42;24.85;;;9.20;95.10;;;;;;5101389;28;20435;-77
2021/03/01 04:48:24;;;;;;;39.78;24.30;;;9.20;95.20;;;;;;5098913;28;20421;-77
2021/03/01 04:50:54;;;;;;;40.53;23.87;;;9.20;95.30;;;;;;5098119;28;20982;-76
2021/03/01 04:53:21;;;;;;;39.42;24.52;;;9.20;95.30;;;;;;5100643;28;20439;-77
2021/03/01 04:55:48;;;;;;;38.53;24.67;;;9.20;95.30;;;;;;5100054;28;20420;-77
2021/03/01 04:58:16;;;;;;;38.63;24.27;;;9.10;95.30;;;;;;5099733;28;20445;-77
2021/03/01 05:00:44;;;;;;;36.25;23.08;;;9.20;95.30;;;;;;5099380;28;20945;-77
2021/03/01 05:03:10;;;;;;;38.20;24.00;;;9.20;95.20;;;;;;5095489;28;20653;-76
2021/03/01 05:05:38;;;;;;;37.53;23.90;;;9.20;95.10;;;;;;5115517;28;20430;-77
2021/03/01 05:08:08;;;;;;;37.67;23.63;;;9.20;95.00;;;;;;5101555;28;20419;-77
2021/03/01 05:10:35;;;;;;;38.58;23.50;;;9.20;94.90;;;;;;5101040;28;20432;-77
2021/03/01 05:13:02;;;;;;;39.37;24.27;;;9.10;94.80;;;;;;5106325;28;20427;-77
2021/03/01 05:15:28;;;;;;;41.85;25.27;;;9.10;94.80;;;;;;5106333;28;20435;-77
2021/03/01 05:17:54;;;;;;;38.75;24.83;;;9.10;94.80;;;;;;5109171;28;20881;-77
2021/03/01 05:20:20;;;;;;;39.28;24.88;;;9.10;94.90;;;;;;5106346;28;20424;-77
2021/03/01 05:22:48;;;;;;;39.45;25.48;;;9.10;94.80;;;;;;5108289;28;20431;-76
2021/03/01 05:25:15;;;;;;;41.58;25.67;;;9.00;94.70;;;;;;5104635;27;20432;-76
2021/03/01 05:27:44;;;;;;;40.80;25.67;;;9.00;94.60;;;;;;5106168;28;20434;-77
2021/03/01 05:30:11;;;;;;;39.60;26.15;;;9.00;94.60;;;;;;5100176;28;20437;-77
2021/03/01 05:32:38;;;;;;;40.40;25.15;;;9.00;94.60;;;;;;5107053;28;20836;-77
2021/03/01 05:35:06;;;;;;;41.63;25.95;;;8.90;94.60;;;;;;5106581;28;20435;-76
2021/03/01 05:37:32;;;;;;;42.38;26.30;;;9.00;94.60;;;;;;5107652;28;20412;-76
2021/03/01 05:39:59;;;;;;;43.17;26.75;;;8.90;94.60;;;;;;5103379;28;20420;-77
2021/03/01 05:42:27;;;;;;;42.88;26.50;;;8.90;94.70;;;;;;5106070;28;20423;-77
2021/03/01 05:44:54;;;;;;;43.03;26.38;;;8.90;94.70;;;;;;5103854;27;20896;-77
2021/03/01 05:47:24;;;;;;;45.33;28.08;;;8.80;94.80;;;;;;5106049;27;20420;-77
2021/03/01 05:49:52;;;;;;;43.10;27.10;;;8.80;95.00;;;;;;5100057;28;20415;-77
2021/03/01 05:52:21;;;;;;;46.85;27.17;;;8.80;95.10;;;;;;5108012;28;20430;-77
2021/03/01 05:54:47;;;;;;;44.97;28.87;;;8.80;95.20;;;;;;5105386;28;20904;-76
2021/03/01 05:57:17;;;;;;;42.70;28.23;;;8.80;95.20;;;;;;5107245;28;20431;-77
2021/03/01 05:59:47;;;;;;;47.25;29.88;;;8.80;95.30;;;;;;5104023;28;20420;-77
2021/03/01 06:02:16;;;;;;;48.42;30.77;;;8.80;95.20;;;;;;5103051;27;20412;-76
2021/03/01 06:04:42;;;;;;;44.63;29.38;;;8.80;95.20;;;;;;5098978;28;20952;-76
2021/03/01 06:07:09;;;;;;;48.35;29.77;;;8.80;95.20;;;;;;5105958;28;20519;-75
2021/03/01 06:09:35;;;;;;;52.95;32.50;;;8.80;95.20;;;;;;5104632;28;20430;-76
2021/03/01 06:12:01;;;;;;;52.75;32.35;;;8.80;95.30;;;;;;5105267;28;20483;-76
2021/03/01 06:14:28;;;;;;;53.38;32.72;;;8.70;95.30;;;;;;5108675;28;20800;-77
2021/03/01 06:17:12;;;;;;;49.38;31.02;;;8.70;95.30;;;;;;5103291;28;21139;-76
2021/03/01 06:20:03;;;;;;;52.60;31.60;;;8.80;95.70;;;;;;5103851;28;20424;-76
2021/03/01 06:22:41;;;;;;;50.63;30.20;;;8.70;95.60;;;;;;5088746;28;20501;-76
2021/03/01 06:25:10;;;;;;;39.47;25.67;;;8.80;95.20;;;;;;5107053;27;20431;-76
2021/03/01 06:27:51;;;;;;;39.35;25.38;;;8.70;94.90;;;;;;5101382;28;20420;-80
2021/03/01 06:30:20;;;;;;;34.83;22.63;;;8.70;94.70;;;;;;5105325;28;20432;-79
2021/03/01 06:33:05;;;;;;;35.78;22.42;;;8.70;94.40;;;;;;5101724;28;20424;-78
2021/03/01 06:35:33;;;;;;;33.65;22.95;;;8.60;94.30;;;;;;5098715;28;20530;-77
2021/03/01 06:38:14;;;;;;;33.47;23.17;;;8.50;94.40;;;;;;5103272;28;20426;-77
2021/03/01 06:40:41;;;;;;;36.30;23.33;;;8.50;94.70;;;;;;5112922;27;20445;-81
2021/03/01 06:43:11;;;;;;;35.78;23.80;;;8.40;94.60;;;;;;5111496;27;20799;-79
2021/03/01 06:45:39;;;;;;;34.03;21.95;;;8.40;94.80;;;;;;5110414;28;20420;-79
2021/03/01 06:48:06;;;;;;;35.17;22.30;;;8.40;94.70;;;;;;5108928;27;20421;-78
2021/03/01 06:50:34;;;;;;;36.05;22.08;;;8.40;94.70;;;;;;5108012;28;20424;-79
2021/03/01 06:53:04;;;;;;;33.50;21.60;;;8.30;94.80;;;;;;5111144;28;20427;-78
2021/03/01 06:55:31;;;;;;;33.90;22.10;;;8.30;94.90;;;;;;5109876;28;20419;-78
2021/03/01 06:57:58;;;;;;;33.63;21.92;;;8.30;94.80;;;;;;5110752;28;20792;-79
2021/03/01 07:00:27;;;;;;;39.95;22.60;;;8.30;94.70;;;;;;5109110;28;20438;-78
2021/03/01 07:02:55;;;;;;;34.17;22.20;;;8.30;94.90;;;;;;5109903;27;20484;-80
2021/03/01 07:05:22;;;;;;;34.60;22.17;;;8.30;95.00;;;;;;5110006;28;20420;-80
2021/03/01 07:07:49;;;;;;;37.28;23.23;;;8.30;95.00;;;;;;5109402;28;20408;-79
2021/03/01 07:10:16;;;;;;;37.58;22.58;;;8.30;95.00;;;;;;5111625;28;20892;-78
2021/03/01 07:12:44;;;;;;;36.83;22.45;;;8.30;95.00;;;;;;5110243;27;20844;-78
2021/03/01 07:15:14;;;;;;;35.87;23.07;;;8.30;95.10;;;;;;5109908;28;21240;-80
2021/03/01 07:17:42;;;;;;;36.53;22.25;;;8.30;95.00;;;;;;5110161;28;20420;-79
2021/03/01 07:20:12;;;;;;;35.33;22.07;;;8.40;95.00;;;;;;5107668;27;20428;-78
2021/03/01 07:22:40;;;;;;;32.97;21.67;;;8.40;94.90;;;;;;5110553;28;20431;-78
2021/03/01 07:25:08;;;;;;;31.95;20.42;;;8.40;94.70;;;;;;5108328;28;20503;-78
2021/03/01 07:27:39;;;;;;;30.67;20.30;;;8.40;94.70;;;;;;5108993;28;20412;-76
2021/03/01 07:30:07;;;;;;;33.30;20.58;;;8.40;94.70;;;;;;5108888;28;20416;-77
2021/03/01 07:32:34;;;;;;;34.40;20.80;;;8.30;94.70;;;;;;5110327;28;20461;-76
2021/03/01 07:35:01;;;;;;;37.45;21.38;;;8.40;94.80;;;;;;5109263;28;20758;-77
2021/03/01 07:37:28;;;;;;;34.33;21.33;;;8.40;94.70;;;;;;5108514;27;20536;-77
2021/03/01 07:39:55;;;;;;;34.67;22.27;;;8.50;94.70;;;;;;5104205;28;20786;-78
2021/03/01 07:42:22;;;;;;;35.03;20.60;;;8.50;94.90;;;;;;5107213;28;20489;-77
2021/03/01 07:44:53;;;;;;;32.25;20.15;;;8.60;94.60;;;;;;5107444;28;20423;-77
2021/03/01 07:47:26;;;;;;;32.60;20.13;;;8.60;94.50;;;;;;5109114;28;20485;-77
2021/03/01 07:49:52;;;;;;;32.33;19.95;;;8.60;94.30;;;;;;5105614;28;20892;-76
2021/03/01 07:52:38;;;;;;;32.78;18.83;;;8.60;94.40;;;;;;5105791;28;20427;-76
2021/03/01 07:55:09;;;;;;;32.45;20.73;;;8.60;94.20;;;;;;5107476;28;20412;-75
2021/03/01 07:57:36;;;;;;;32.03;19.88;;;8.60;94.30;;;;;;5105858;27;20445;-75
2021/03/01 08:00:22;;;;;;;35.08;21.25;;;8.60;94.40;;;;;;5105490;28;20431;-75
2021/03/01 08:02:48;;;;;;;33.65;20.25;;;8.70;94.40;;;;;;5106510;28;20427;-75
2021/03/01 08:05:24;;;;;;;33.20;19.58;;;8.70;94.40;;;;;;5105491;28;20420;-75
2021/03/01 08:07:51;;;;;;;32.05;19.50;;;8.70;94.40;;;;;;5109109;28;20945;-75
2021/03/01 08:10:19;;;;;;;33.80;19.90;;;8.80;94.30;;;;;;5105856;28;20419;-77
2021/03/01 08:12:59;;;;;;;32.30;18.80;;;8.80;94.20;;;;;;5105284;28;20777;-75
2021/03/01 08:15:32;;;;;;;33.45;19.83;;;8.80;94.10;;;;;;5107720;28;20435;-76
2021/03/01 08:17:59;;;;;;;35.70;19.80;;;8.80;93.90;;;;;;5108070;28;20412;-75
2021/03/01 08:20:37;;;;;;;34.90;19.40;;;8.80;93.90;;;;;;5101240;28;20424;-79
2021/03/01 08:23:19;;;;;;;35.25;19.50;;;8.80;93.90;;;;;;5108118;28;20434;-77
2021/03/01 08:25:51;;;;;;;34.33;19.00;;;8.80;94.00;;;;;;5108465;28;20456;-78
2021/03/01 08:28:49;;;;;;;35.42;18.38;;;8.90;94.20;;;;;;5096750;28;20432;-76
2021/03/01 08:31:37;;;;;;;30.63;18.08;;;8.80;93.90;;;;;;5104895;27;20427;-77
2021/03/01 08:34:32;;;;;;;33.85;18.45;;;8.90;94.00;;;;;;5099010;28;20416;-77
2021/03/01 08:37:00;;;;;;;32.40;18.27;;;8.90;93.80;;;;;;5106524;28;20419;-76
2021/03/01 08:39:59;;;;;;;35.67;19.60;;;8.90;93.70;;;;;;5106992;28;20419;-78
2021/03/01 08:42:46;;;;;;;37.55;20.05;;;8.90;93.60;;;;;;5106813;28;20485;-77
2021/03/01 08:45:13;;;;;;;34.65;18.70;;;8.90;93.70;;;;;;5100606;28;20432;-75
2021/03/01 08:47:48;;;;;;;35.13;18.33;;;9.00;93.70;;;;;;5104086;28;20919;-75
2021/03/01 08:50:14;;;;;;;35.35;18.40;;;9.00;93.60;;;;;;5105514;28;20893;-76
2021/03/01 08:52:49;;;;;;;34.50;18.38;;;9.00;93.50;;;;;;5106396;28;20756;-76
2021/03/01 08:55:19;;;;;;;35.13;18.77;;;9.00;93.40;;;;;;5104168;28;20424;-78
2021/03/01 08:57:56;;;;;;;32.80;17.70;;;9.00;93.40;;;;;;5102175;28;20424;-77
2021/03/01 09:00:23;;;;;;;33.25;17.80;;;9.00;93.20;;;;;;5102943;28;20489;-75
2021/03/01 09:02:50;;;;;;;33.55;17.27;;;9.10;93.30;;;;;;5102152;28;20424;-76
2021/03/01 09:05:18;;;;;;;32.03;17.05;;;9.10;93.20;;;;;;5113243;27;20978;-75
2021/03/01 09:07:45;;;;;;;33.47;17.25;;;9.10;93.10;;;;;;5101686;28;20412;-75
2021/03/01 09:10:12;;;;;;;32.58;17.65;;;9.10;93.10;;;;;;5099403;28;20421;-76
2021/03/01 09:12:43;;;;;;;33.03;17.92;;;9.10;93.00;;;;;;5103726;28;21201;-75
2021/03/01 09:15:11;;;;;;;36.92;17.90;;;9.10;93.20;;;;;;5103653;27;20501;-76
2021/03/01 09:17:37;;;;;;;33.13;18.77;;;9.10;93.30;;;;;;5107732;28;20422;-77
2021/03/01 09:20:05;;;;;;;36.53;18.52;;;9.20;93.30;;;;;;5106693;28;20428;-77
2021/03/01 09:22:43;;;;;;;40.00;18.30;;;9.20;93.30;;;;;;5104423;28;20426;-76
2021/03/01 09:25:25;;;;;;;36.45;18.17;;;9.20;93.20;;;;;;5101015;27;20502;-77
2021/03/01 09:27:52;;;;;;;37.00;18.40;;;9.20;93.40;;;;;;5103757;28;20416;-77
2021/03/01 09:30:20;;;;;;;36.17;17.42;;;9.30;93.10;;;;;;5101736;28;20423;-76
2021/03/01 09:32:58;;;;;;;35.20;18.53;;;9.30;92.90;;;;;;5108279;28;20423;-77
2021/03/01 09:35:26;;;;;;;36.03;18.15;;;9.30;92.90;;;;;;5102687;28;20432;-76
2021/03/01 09:37:52;;;;;;;34.10;17.70;;;9.30;92.80;;;;;;5107582;28;20415;-77
2021/03/01 09:40:23;;;;;;;34.05;17.65;;;9.40;92.60;;;;;;5106482;28;20466;-76
2021/03/01 09:42:53;;;;;;;35.85;18.35;;;9.50;92.50;;;;;;5107411;28;20911;-76
2021/03/01 09:45:21;;;;;;;33.10;17.88;;;9.40;92.50;;;;;;5100503;28;20425;-74
2021/03/01 09:47:50;;;;;;;37.03;18.52;;;9.50;92.40;;;;;;5102680;27;20542;-77
2021/03/01 09:50:18;;;;;;;34.97;18.23;;;9.60;92.30;;;;;;5105986;27;20439;-78
2021/03/01 09:52:46;;;;;;;34.20;18.23;;;9.60;92.20;;;;;;5107996;28;20963;-79
2021/03/01 09:55:13;;;;;;;36.60;19.17;;;9.60;92.30;;;;;;5102277;28;20428;-78
2021/03/01 09:57:39;;;;;;;35.88;18.70;;;9.70;92.30;;;;;;5103956;28;20431;-80
2021/03/01 10:00:28;;;;;;;36.03;18.30;;;9.80;92.20;;;;;;5104541;28;20977;-79
2021/03/01 10:03:02;;;;;;;33.42;17.20;;;9.90;92.30;;;;;;5104428;28;20430;-79
2021/03/01 10:05:31;;;;;;;31.58;17.80;;;10.00;92.10;;;;;;5109458;28;20416;-76
2021/03/01 10:08:00;;;;;;;31.40;16.73;;;10.10;91.90;;;;;;5102788;28;20255;-76
2021/03/01 10:10:34;;;;;;;43.72;19.85;;;9.80;92.40;;;;;;5103881;28;20749;-76
2021/03/01 10:13:01;;;;;;;33.03;15.50;;;9.50;92.90;;;;;;5105662;28;20676;-77
2021/03/01 10:15:42;;;;;;;31.30;15.60;;;9.40;93.30;;;;;;5104612;28;20212;-78
2021/03/01 10:18:10;;;;;;;31.85;15.40;;;9.30;93.50;;;;;;5103046;28;20685;-78
2021/03/01 10:20:47;;;;;;;34.90;16.08;;;9.30;93.60;;;;;;5105359;28;20205;-76
2021/03/01 10:23:26;;;;;;;38.70;15.93;;;9.30;93.70;;;;;;5104696;28;20592;-78
2021/03/01 10:26:14;;;;;;;37.53;15.75;;;9.30;93.80;;;;;;5102011;27;20262;-77
2021/03/01 10:28:42;;;;;;;31.35;14.80;;;9.30;93.80;;;;;;5102637;28;20662;-77
2021/03/01 10:31:10;;;;;;;30.52;14.07;;;9.30;93.90;;;;;;5105836;28;20601;-77
2021/03/01 10:33:54;;;;;;;26.88;14.10;;;9.40;93.90;;;;;;5105730;28;20208;-77
2021/03/01 10:36:20;;;;;;;31.90;14.10;;;9.40;93.70;;;;;;5104222;28;20196;-76
2021/03/01 10:38:51;;;;;;;30.10;14.35;;;9.50;93.70;;;;;;5107547;27;20587;-76
2021/03/01 10:41:19;;;;;;;32.25;14.32;;;9.50;93.60;;;;;;5102707;28;20210;-78
2021/03/01 10:43:54;;;;;;;29.80;14.18;;;9.60;93.50;;;;;;5103802;28;20201;-79
2021/03/01 10:46:36;;;;;;;35.42;14.98;;;9.60;93.30;;;;;;5103678;28;20201;-77
2021/03/01 10:49:04;;;;;;;31.58;14.93;;;9.70;93.30;;;;;;5103385;28;20202;-76
2021/03/01 10:51:30;;;;;;;28.15;14.90;;;9.70;93.10;;;;;;5103220;28;20207;-78
2021/03/01 10:53:57;;;;;;;30.10;14.32;;;9.80;93.10;;;;;;5108814;28;20641;-77
2021/03/01 10:56:23;;;;;;;31.48;14.60;;;9.80;93.00;;;;;;5107996;28;20197;-77
2021/03/01 10:58:50;;;;;;;30.77;14.55;;;9.90;92.90;;;;;;5108906;28;20220;-77
2021/03/01 11:01:17;;;;;;;31.90;14.27;;;9.90;92.90;;;;;;5105850;28;20275;-77
2021/03/01 11:03:45;;;;;;;32.58;16.30;;;10.00;92.80;;;;;;5107892;28;20423;-77
2021/03/01 11:06:13;;;;;;;31.85;16.10;;;10.30;92.00;;;;;;5103866;28;20467;-76
2021/03/01 11:08:40;;;;;;;28.63;15.43;;;10.60;91.20;;;;;;5106699;28;20510;-76
2021/03/01 11:11:06;;;;;;;30.77;15.95;;;10.80;90.90;;;;;;5103247;27;20463;-75
2021/03/01 11:13:33;;;;;;;28.42;15.50;;;10.90;90.40;;;;;;5106287;28;20429;-76
2021/03/01 11:15:59;;;;;;;30.02;15.68;;;11.10;90.10;;;;;;5105334;28;20416;-79
2021/03/01 11:18:25;;;;;;;31.15;16.10;;;11.20;90.20;;;;;;5104615;28;20457;-82
2021/03/01 11:20:53;;;;;;;28.23;14.83;;;11.30;89.70;;;;;;5104810;28;20416;-77
2021/03/01 11:23:19;;;;;;;28.02;14.68;;;11.40;88.50;;;;;;5103292;28;20432;-76
2021/03/01 11:25:46;;;;;;;27.10;15.10;;;11.50;88.20;;;;;;5105895;28;20443;-77
2021/03/01 11:28:13;;;;;;;30.97;15.10;;;11.60;87.70;;;;;;5107451;28;20515;-76
2021/03/01 11:30:39;;;;;;;31.33;14.85;;;11.60;87.30;;;;;;5105551;28;20428;-78
2021/03/01 11:33:07;;;;;;;25.85;14.68;;;11.70;87.30;;;;;;5108025;28;20761;-78
2021/03/01 11:35:34;;;;;;;28.92;14.20;;;11.80;86.40;;;;;;5103419;28;20456;-78
2021/03/01 11:38:01;;;;;;;26.42;14.30;;;11.90;85.90;;;;;;5107786;28;20481;-77
2021/03/01 11:40:28;;;;;;;26.17;13.95;;;12.00;85.50;;;;;;5105299;28;20451;-76
2021/03/01 11:42:55;;;;;;;23.20;13.68;;;12.10;86.00;;;;;;5106110;28;20419;-77
2021/03/01 11:45:21;;;;;;;26.63;14.35;;;12.10;85.00;;;;;;5103881;28;20432;-77
2021/03/01 11:47:48;;;;;;;22.60;12.52;;;12.10;84.10;;;;;;5105079;28;20488;-78
2021/03/01 11:50:16;;;;;;;22.75;12.82;;;12.20;84.30;;;;;;5104847;28;20780;-77
2021/03/01 11:52:42;;;;;;;23.27;13.02;;;12.20;84.00;;;;;;5101667;28;21290;-76
2021/03/01 11:55:11;;;;;;;23.88;12.80;;;12.30;83.70;;;;;;5105382;28;20454;-78
2021/03/01 11:57:38;;;;;;;26.53;12.87;;;12.40;83.20;;;;;;5102730;28;20423;-75
2021/03/01 12:00:06;;;;;;;25.53;13.33;;;12.40;82.90;;;;;;5104231;28;20424;-76
2021/03/01 12:02:38;;;;;;;23.50;12.82;;;12.50;83.00;;;;;;5105099;28;20412;-77
2021/03/01 12:05:05;;;;;;;26.30;13.88;;;12.60;81.90;;;;;;5103643;28;20782;-78
2021/03/01 12:07:31;;;;;;;25.10;13.30;;;12.60;81.80;;;;;;5105101;28;20412;-77
2021/03/01 12:09:58;;;;;;;28.40;14.80;;;12.70;82.30;;;;;;5101765;28;20473;-76
2021/03/01 12:12:25;;;;;;;26.13;13.70;;;12.80;81.80;;;;;;5101873;28;20917;-77
2021/03/01 12:14:51;;;;;;;24.55;13.60;;;12.80;81.50;;;;;;5101443;28;20420;-77
2021/03/01 12:17:17;;;;;;;22.90;13.00;;;12.90;80.70;;;;;;5104886;28;20422;-77
2021/03/01 12:19:44;;;;;;;23.33;13.05;;;13.00;80.00;;;;;;5105100;28;20426;-76
2021/03/01 12:22:10;;;;;;;24.90;12.90;;;13.20;80.10;;;;;;5104366;28;20430;-78
2021/03/01 12:24:36;;;;;;;21.93;12.97;;;13.30;79.60;;;;;;5105984;28;20460;-78
2021/03/01 12:27:03;;;;;;;24.47;13.07;;;13.40;79.30;;;;;;5103122;28;20427;-76
2021/03/01 12:29:30;;;;;;;20.83;12.20;;;13.50;78.90;;;;;;5106384;28;20427;-76
2021/03/01 12:31:56;;;;;;;23.55;12.70;;;13.60;78.70;;;;;;5102265;28;20433;-76
2021/03/01 12:34:23;;;;;;;20.63;12.07;;;13.70;77.10;;;;;;5103800;28;21020;-77
2021/03/01 12:36:49;;;;;;;24.20;13.63;;;13.80;76.60;;;;;;5102191;28;20478;-76
2021/03/01 12:39:15;;;;;;;23.17;12.17;;;13.90;77.20;;;;;;5102391;28;23453;-75
2021/03/01 12:41:42;;;;;;;20.00;12.20;;;14.10;76.90;;;;;;5117135;27;20428;-77
2021/03/01 12:44:09;;;;;;;24.00;12.70;;;14.20;76.30;;;;;;5101621;28;20424;-77
2021/03/01 12:46:36;;;;;;;24.07;12.80;;;14.30;75.80;;;;;;5103319;28;20911;-78
2021/03/01 12:49:02;;;;;;;22.42;12.73;;;14.30;74.80;;;;;;5106301;28;20915;-76